FYLZ

Luderitz Airport

Luderitz, Namibia
METAR FYLZ 161000Z AUTO 22022KT //// // ////// 24/14 Q1013
Observed Flight Rules
Dec-16 @ 10:00 UTC (56 minutes ago)
Wind
220° at 22 knots
Temperatures Readings
Current 24°C / 75°F
Dewpoint 14°C / 57°F
Humidity 54%
Altimeter 29.91" Hg
Pressure 1013 hPa
Elevation 130
METAR FYLZ 161000Z AUTO 22022KT //// // ////// 24/14 Q1013
Observed Flight Rules
Dec-16 @ 10:00 UTC
(56 minutes ago)
Wind
220° at 22 knots
Temperature Dewpoint
24°C / 75°F 14°C / 57°F
Humidity Altimeter Pressure
54% 29.91" Hg 1013 hPa